Time;durP1;ratioP1;P1;durP2;ratioP2;P2;SDS_P1;SDS_P2;PMS_P1;PMS_P2;Temp;Humidity;BMP_temperature;BMP_pressure;BME280_temperature;BME280_humidity;BME280_pressure;Samples;Min_cycle;Max_cycle;Signal;HPM_P1;HPM_P2
2023/06/14 00:00:40;;;;;;;4.55;1.70;;;17.00;83.90;;;;;;5031647;28;20205;-78
2023/06/14 00:03:08;;;;;;;3.03;1.45;;;17.00;84.10;;;;;;5033173;28;20037;-78
2023/06/14 00:05:38;;;;;;;2.13;1.40;;;16.90;84.30;;;;;;5050266;28;20440;-79
2023/06/14 00:08:07;;;;;;;2.28;1.40;;;16.90;84.60;;;;;;5049973;28;20469;-79
2023/06/14 00:10:35;;;;;;;4.15;1.65;;;16.80;84.70;;;;;;5033195;28;20033;-77
2023/06/14 00:13:04;;;;;;;3.33;1.80;;;16.70;85.00;;;;;;5032804;28;20440;-78
2023/06/14 00:15:31;;;;;;;3.60;2.00;;;16.70;85.00;;;;;;5032599;28;20140;-78
2023/06/14 00:18:00;;;;;;;5.13;1.80;;;16.70;85.30;;;;;;5049776;28;20083;-78
2023/06/14 00:20:26;;;;;;;3.40;1.58;;;16.60;85.40;;;;;;5033052;28;20041;-78
2023/06/14 00:22:52;;;;;;;7.80;1.70;;;16.50;85.70;;;;;;5032444;28;20044;-78
2023/06/14 00:25:17;;;;;;;4.90;1.50;;;16.50;85.90;;;;;;5032659;28;20033;-79
2023/06/14 00:27:43;;;;;;;3.08;1.60;;;16.50;86.10;;;;;;5048882;28;20413;-78
2023/06/14 00:30:09;;;;;;;3.20;1.58;;;16.50;86.30;;;;;;5033580;28;20425;-78
2023/06/14 00:32:34;;;;;;;3.90;1.70;;;16.50;86.60;;;;;;5048672;28;20033;-78
2023/06/14 00:35:00;;;;;;;3.63;1.60;;;16.40;87.00;;;;;;5049321;28;20068;-77
2023/06/14 00:37:25;;;;;;;4.55;1.63;;;16.30;87.10;;;;;;5032366;28;20033;-79
2023/06/14 00:39:51;;;;;;;2.85;1.70;;;16.30;87.40;;;;;;5032230;28;20417;-78
2023/06/14 00:42:24;;;;;;;5.10;1.67;;;16.30;87.80;;;;;;5048686;28;20048;-77
2023/06/14 00:44:50;;;;;;;4.85;1.55;;;16.30;88.10;;;;;;5032691;28;20132;-78
2023/06/14 00:47:15;;;;;;;5.18;1.77;;;16.30;88.10;;;;;;5048893;28;20516;-77
2023/06/14 00:49:41;;;;;;;3.55;1.70;;;16.20;88.20;;;;;;5032086;28;20093;-78
2023/06/14 00:52:07;;;;;;;2.83;1.70;;;16.20;88.50;;;;;;5048946;28;20080;-78
2023/06/14 00:54:33;;;;;;;3.17;1.77;;;16.20;88.70;;;;;;5032097;28;20065;-78
2023/06/14 00:56:58;;;;;;;2.92;1.73;;;16.10;89.00;;;;;;5049672;28;20528;-78
2023/06/14 00:59:24;;;;;;;2.78;1.30;;;16.10;89.20;;;;;;5048610;28;20040;-77
2023/06/14 01:01:50;;;;;;;3.88;1.73;;;16.00;89.50;;;;;;5031848;28;20120;-77
2023/06/14 01:04:16;;;;;;;4.07;1.60;;;16.00;89.90;;;;;;5048824;28;20076;-78
2023/06/14 01:07:03;;;;;;;2.85;1.50;;;16.00;90.10;;;;;;5048349;28;20025;-78
2023/06/14 01:09:47;;;;;;;3.80;1.60;;;16.00;90.40;;;;;;5048444;28;20493;-77
2023/06/14 01:12:25;;;;;;;1.55;1.23;;;15.90;90.40;;;;;;5030570;28;20436;-79
2023/06/14 01:14:53;;;;;;;3.80;1.40;;;15.90;90.50;;;;;;5048579;28;20049;-79
2023/06/14 01:17:20;;;;;;;5.13;1.80;;;15.90;90.50;;;;;;5031459;28;20084;-79
2023/06/14 01:19:46;;;;;;;3.72;1.70;;;15.90;90.60;;;;;;5032103;28;20412;-78
2023/06/14 01:22:12;;;;;;;4.25;1.77;;;15.80;90.80;;;;;;5042779;28;20034;-78
2023/06/14 01:24:39;;;;;;;4.90;1.48;;;15.80;90.90;;;;;;5027883;28;20044;-78
2023/06/14 01:27:06;;;;;;;3.13;1.70;;;15.70;91.00;;;;;;5031784;28;20438;-79
2023/06/14 01:29:32;;;;;;;4.22;1.60;;;15.70;91.20;;;;;;5048676;28;20052;-78
2023/06/14 01:32:00;;;;;;;5.43;1.70;;;15.70;91.30;;;;;;5047465;28;20488;-78
2023/06/14 01:34:26;;;;;;;2.95;1.40;;;15.60;91.40;;;;;;5031636;28;20060;-78
2023/06/14 01:36:54;;;;;;;3.75;1.55;;;15.60;91.50;;;;;;5031325;28;20030;-78
2023/06/14 01:39:20;;;;;;;2.95;1.40;;;15.60;91.70;;;;;;5047909;28;20041;-78
2023/06/14 01:41:47;;;;;;;2.40;1.40;;;15.50;91.80;;;;;;5030729;28;20081;-78
2023/06/14 01:44:14;;;;;;;3.75;1.50;;;15.50;91.90;;;;;;5047405;28;20046;-78
2023/06/14 01:46:41;;;;;;;4.32;1.75;;;15.50;92.10;;;;;;5030641;28;20041;-78
2023/06/14 01:49:08;;;;;;;3.15;1.67;;;15.50;92.20;;;;;;5030468;28;20485;-78
2023/06/14 01:51:33;;;;;;;4.55;1.50;;;15.50;92.30;;;;;;5045765;28;20068;-78
2023/06/14 01:54:00;;;;;;;3.88;1.38;;;15.40;92.40;;;;;;5047379;28;20456;-78
2023/06/14 01:56:26;;;;;;;4.85;1.70;;;15.40;92.60;;;;;;5047266;28;20065;-78
2023/06/14 01:58:51;;;;;;;2.92;1.40;;;15.40;92.70;;;;;;5030580;28;20118;-78
2023/06/14 02:01:18;;;;;;;3.00;1.45;;;15.30;92.80;;;;;;5046936;28;20446;-78
2023/06/14 02:03:44;;;;;;;2.65;1.55;;;15.30;92.90;;;;;;5030342;28;20049;-78
2023/06/14 02:06:10;;;;;;;3.38;1.80;;;15.30;93.00;;;;;;5047248;28;20090;-78
2023/06/14 02:08:36;;;;;;;3.65;1.60;;;15.30;93.10;;;;;;5030170;28;20504;-80
2023/06/14 02:11:01;;;;;;;3.30;1.70;;;15.20;93.20;;;;;;5029893;28;20048;-78
2023/06/14 02:13:27;;;;;;;6.43;1.80;;;15.20;93.40;;;;;;5030481;28;20048;-79
2023/06/14 02:15:54;;;;;;;3.30;1.60;;;15.20;93.50;;;;;;5030623;28;20037;-78
2023/06/14 02:18:21;;;;;;;2.30;1.70;;;15.10;93.60;;;;;;5030218;28;20045;-78
2023/06/14 02:20:47;;;;;;;3.45;1.58;;;15.10;93.70;;;;;;5030025;28;20096;-77
2023/06/14 02:23:12;;;;;;;3.15;1.60;;;15.10;93.80;;;;;;5029693;28;20033;-77
2023/06/14 02:25:39;;;;;;;3.08;1.75;;;15.00;93.90;;;;;;5030335;28;20076;-77
2023/06/14 02:28:05;;;;;;;4.18;1.95;;;15.00;94.00;;;;;;5046892;28;20049;-78
2023/06/14 02:30:30;;;;;;;5.40;1.75;;;15.00;94.10;;;;;;5046943;28;20037;-78
2023/06/14 02:32:56;;;;;;;4.97;1.50;;;15.00;94.20;;;;;;5046307;28;20046;-78
2023/06/14 02:35:26;;;;;;;4.10;1.77;;;15.00;94.30;;;;;;5030093;28;20036;-76
2023/06/14 02:37:52;;;;;;;4.55;1.88;;;15.00;94.50;;;;;;5029842;28;20045;-79
2023/06/14 02:40:18;;;;;;;5.47;1.88;;;15.00;94.50;;;;;;5029707;28;20033;-77
2023/06/14 02:42:43;;;;;;;3.83;2.00;;;15.00;94.60;;;;;;5029604;28;20033;-77
2023/06/14 02:45:09;;;;;;;4.95;1.70;;;15.00;94.70;;;;;;5029702;28;20103;-78
2023/06/14 02:47:34;;;;;;;4.82;1.98;;;15.00;94.80;;;;;;5029783;28;20114;-78
2023/06/14 02:50:00;;;;;;;3.88;1.92;;;14.90;94.90;;;;;;5046259;28;20042;-78
2023/06/14 02:52:26;;;;;;;3.38;1.98;;;14.90;95.00;;;;;;5029578;28;20404;-78
2023/06/14 02:54:52;;;;;;;3.92;2.08;;;14.90;95.10;;;;;;5046165;28;20121;-77
2023/06/14 02:57:17;;;;;;;5.47;1.90;;;14.90;95.20;;;;;;5046262;28;20030;-78
2023/06/14 02:59:43;;;;;;;4.32;2.17;;;14.90;95.30;;;;;;5021204;28;20562;-77
2023/06/14 03:02:08;;;;;;;3.75;2.00;;;14.90;95.60;;;;;;5045726;28;20042;-78
2023/06/14 03:04:37;;;;;;;5.20;2.10;;;14.90;95.40;;;;;;5046214;28;20042;-78
2023/06/14 03:07:08;;;;;;;3.95;1.88;;;14.90;95.50;;;;;;5029494;28;20033;-79
2023/06/14 03:09:38;;;;;;;3.38;1.95;;;14.80;95.70;;;;;;5029600;28;20264;-78
2023/06/14 03:12:06;;;;;;;3.22;2.10;;;14.80;95.80;;;;;;5029384;28;20409;-77
2023/06/14 03:14:32;;;;;;;4.45;2.00;;;14.80;95.90;;;;;;5029427;28;20037;-78
2023/06/14 03:16:58;;;;;;;3.10;1.88;;;14.80;96.00;;;;;;5045951;28;20037;-79
2023/06/14 03:19:25;;;;;;;5.85;2.35;;;14.80;96.10;;;;;;5029800;28;20039;-78
2023/06/14 03:21:52;;;;;;;4.55;2.00;;;14.80;96.20;;;;;;5029069;28;20042;-78
2023/06/14 03:24:17;;;;;;;4.32;1.92;;;14.70;96.30;;;;;;5046229;28;20448;-79
2023/06/14 03:26:43;;;;;;;4.95;2.13;;;14.70;96.40;;;;;;5029275;28;20037;-78
2023/06/14 03:29:09;;;;;;;2.80;1.85;;;14.70;96.60;;;;;;5045784;28;20041;-79
2023/06/14 03:31:35;;;;;;;4.53;2.17;;;14.70;96.70;;;;;;5045526;28;20065;-78
2023/06/14 03:34:01;;;;;;;3.90;2.03;;;14.70;96.80;;;;;;5029189;28;20038;-78
2023/06/14 03:36:27;;;;;;;6.13;2.00;;;14.70;96.90;;;;;;5032654;28;20042;-78
2023/06/14 03:38:54;;;;;;;5.03;2.08;;;14.70;97.00;;;;;;5032887;28;20046;-79
2023/06/14 03:41:20;;;;;;;4.50;2.05;;;14.60;97.10;;;;;;5032925;28;20033;-77
2023/06/14 03:43:46;;;;;;;3.85;2.08;;;14.70;97.30;;;;;;5032793;28;20393;-78
2023/06/14 03:46:11;;;;;;;6.22;2.20;;;14.70;97.40;;;;;;5034516;28;20489;-78
2023/06/14 03:48:37;;;;;;;3.30;2.10;;;14.70;97.60;;;;;;5032903;28;20049;-79
2023/06/14 03:51:02;;;;;;;3.78;1.98;;;14.70;97.70;;;;;;5032566;28;20078;-79
2023/06/14 03:53:29;;;;;;;4.45;2.13;;;14.70;97.80;;;;;;5034313;28;20113;-79
2023/06/14 03:55:55;;;;;;;4.35;2.40;;;14.70;98.00;;;;;;5049173;28;20050;-79
2023/06/14 03:58:20;;;;;;;4.60;2.00;;;14.70;98.20;;;;;;5049018;28;20040;-78
2023/06/14 04:00:46;;;;;;;5.38;2.05;;;14.70;98.30;;;;;;5032794;28;20072;-78
2023/06/14 04:03:19;;;;;;;5.03;2.25;;;14.70;98.40;;;;;;5049027;28;20037;-78
2023/06/14 04:05:49;;;;;;;4.70;2.45;;;14.70;98.50;;;;;;5033984;28;20048;-78
2023/06/14 04:08:15;;;;;;;6.22;2.38;;;14.80;98.70;;;;;;5049261;28;20041;-78
2023/06/14 04:10:41;;;;;;;4.60;2.40;;;14.80;98.90;;;;;;5049055;28;20386;-79
2023/06/14 04:13:07;;;;;;;7.75;2.38;;;14.80;99.10;;;;;;5049159;28;20033;-78
2023/06/14 04:15:33;;;;;;;3.53;2.20;;;14.90;99.20;;;;;;5048541;28;20037;-79
2023/06/14 04:17:59;;;;;;;3.17;2.20;;;14.90;99.30;;;;;;5032500;28;20033;-79
2023/06/14 04:20:24;;;;;;;5.70;2.60;;;14.90;99.50;;;;;;5048962;28;20120;-78
2023/06/14 04:22:51;;;;;;;7.55;2.60;;;15.00;99.60;;;;;;5048753;28;20045;-78
2023/06/14 04:25:16;;;;;;;3.25;2.10;;;15.00;99.70;;;;;;5049086;28;20034;-78
2023/06/14 04:27:43;;;;;;;4.05;2.20;;;15.00;99.80;;;;;;5048860;28;20044;-78
2023/06/14 04:30:09;;;;;;;3.20;2.40;;;15.10;99.90;;;;;;5023670;28;20519;-79
2023/06/14 04:32:38;;;;;;;4.00;2.22;;;15.10;99.90;;;;;;5048276;28;20571;-79
2023/06/14 04:35:06;;;;;;;5.88;2.55;;;15.20;99.90;;;;;;5024395;28;20048;-79
2023/06/14 04:37:33;;;;;;;5.53;2.38;;;15.20;99.90;;;;;;5032182;28;20124;-79
2023/06/14 04:39:58;;;;;;;3.72;2.50;;;15.30;99.90;;;;;;5048522;28;20045;-79
2023/06/14 04:42:25;;;;;;;5.82;3.13;;;15.40;99.90;;;;;;5048518;28;20034;-79
2023/06/14 04:44:51;;;;;;;4.50;2.45;;;15.40;99.90;;;;;;5032033;28;20049;-79
2023/06/14 04:47:17;;;;;;;5.03;2.42;;;15.50;99.90;;;;;;5031969;28;20075;-79
2023/06/14 04:49:43;;;;;;;4.15;2.72;;;15.60;99.90;;;;;;5032146;28;20049;-78
2023/06/14 04:52:10;;;;;;;4.40;2.28;;;15.70;99.90;;;;;;5023319;28;20117;-78
2023/06/14 04:54:37;;;;;;;4.75;2.20;;;15.70;99.90;;;;;;5031713;28;20034;-78
2023/06/14 04:57:05;;;;;;;6.55;3.05;;;15.80;99.90;;;;;;5032149;28;20401;-77
2023/06/14 04:59:33;;;;;;;7.35;2.38;;;15.90;99.90;;;;;;5031482;28;20112;-77
2023/06/14 05:01:59;;;;;;;5.18;2.80;;;15.90;99.90;;;;;;5031413;28;20045;-77
2023/06/14 05:04:26;;;;;;;6.78;3.10;;;16.00;99.90;;;;;;5047626;28;20108;-75
2023/06/14 05:06:54;;;;;;;5.15;3.03;;;16.10;99.90;;;;;;5029711;28;20412;-77
2023/06/14 05:09:20;;;;;;;5.85;2.63;;;16.20;99.90;;;;;;5029921;28;20571;-78
2023/06/14 05:11:45;;;;;;;4.07;2.63;;;16.20;99.90;;;;;;5046256;28;20120;-78
2023/06/14 05:14:12;;;;;;;4.80;2.70;;;16.30;99.90;;;;;;5030372;28;20047;-77
2023/06/14 05:16:38;;;;;;;4.60;2.45;;;16.40;99.90;;;;;;5030011;28;20029;-76
2023/06/14 05:19:04;;;;;;;4.20;2.60;;;16.40;99.90;;;;;;5029956;28;20041;-77
2023/06/14 05:21:31;;;;;;;7.35;2.90;;;16.50;99.90;;;;;;5030718;28;20424;-77
2023/06/14 05:23:57;;;;;;;4.40;2.67;;;16.50;99.90;;;;;;5031020;28;20084;-77
2023/06/14 05:26:28;;;;;;;4.38;2.55;;;16.60;99.90;;;;;;5047643;28;20083;-76
2023/06/14 05:28:57;;;;;;;6.82;3.10;;;16.70;99.90;;;;;;5047531;28;20051;-78
2023/06/14 05:31:24;;;;;;;5.60;2.72;;;16.70;99.90;;;;;;5030640;28;20047;-78
2023/06/14 05:33:50;;;;;;;5.15;3.08;;;16.90;99.90;;;;;;5031251;28;20041;-77
2023/06/14 05:36:16;;;;;;;4.45;2.60;;;16.90;99.90;;;;;;5030776;28;20045;-78
2023/06/14 05:38:41;;;;;;;5.80;2.67;;;17.00;99.80;;;;;;5047403;28;20408;-76
2023/06/14 05:41:07;;;;;;;6.38;2.80;;;17.10;99.70;;;;;;5047356;28;20038;-77
2023/06/14 05:43:32;;;;;;;4.45;2.67;;;17.20;99.60;;;;;;5030812;28;20076;-78
2023/06/14 05:45:58;;;;;;;6.05;2.83;;;17.20;99.40;;;;;;5032204;28;20485;-77
2023/06/14 05:48:23;;;;;;;5.18;2.67;;;17.40;99.40;;;;;;5030575;28;20041;-74
2023/06/14 05:50:49;;;;;;;4.25;2.63;;;17.40;99.40;;;;;;5030193;28;20087;-76
2023/06/14 05:53:15;;;;;;;4.75;2.75;;;17.50;99.30;;;;;;5047107;28;20033;-77
2023/06/14 05:55:40;;;;;;;5.25;2.90;;;17.60;99.20;;;;;;5046769;28;20037;-76
2023/06/14 05:58:06;;;;;;;4.57;2.55;;;17.70;99.00;;;;;;5046561;28;20614;-76
2023/06/14 06:00:31;;;;;;;5.38;2.30;;;17.80;98.90;;;;;;5046954;28;20109;-75
2023/06/14 06:02:57;;;;;;;8.27;2.60;;;17.90;98.80;;;;;;5046806;28;20089;-77
2023/06/14 06:05:23;;;;;;;6.35;2.97;;;18.00;98.70;;;;;;5030507;28;20045;-75
2023/06/14 06:07:49;;;;;;;5.97;3.08;;;18.10;98.60;;;;;;5030184;28;20041;-75
2023/06/14 06:10:15;;;;;;;4.50;2.65;;;18.20;98.30;;;;;;5030324;28;20586;-76
2023/06/14 06:12:41;;;;;;;4.20;2.50;;;18.30;98.20;;;;;;5046489;28;20080;-77
2023/06/14 06:15:07;;;;;;;5.50;2.70;;;18.40;98.00;;;;;;5046768;28;20045;-76
2023/06/14 06:17:33;;;;;;;3.90;2.47;;;18.40;97.80;;;;;;5029613;28;20605;-78
2023/06/14 06:19:59;;;;;;;6.75;2.58;;;18.60;97.50;;;;;;5045711;28;20069;-77
2023/06/14 06:22:24;;;;;;;5.45;2.70;;;18.60;97.40;;;;;;5029257;28;20128;-76
2023/06/14 06:24:50;;;;;;;5.40;2.50;;;18.80;97.30;;;;;;5047297;28;20041;-77
2023/06/14 06:27:16;;;;;;;3.83;2.45;;;18.90;97.10;;;;;;5029929;28;20128;-73
2023/06/14 06:29:43;;;;;;;4.40;2.47;;;19.00;96.90;;;;;;5030804;28;20060;-77
2023/06/14 06:32:09;;;;;;;5.07;2.55;;;19.10;96.70;;;;;;5029680;28;20475;-78
2023/06/14 06:34:37;;;;;;;5.18;2.40;;;19.20;96.40;;;;;;5046423;28;20116;-77
2023/06/14 06:37:02;;;;;;;4.32;2.58;;;19.30;96.20;;;;;;5046431;28;20442;-77
2023/06/14 06:39:28;;;;;;;4.30;2.38;;;19.40;96.10;;;;;;5029813;28;20038;-77
2023/06/14 06:41:53;;;;;;;5.57;2.60;;;19.50;96.00;;;;;;5029312;28;20755;-77
2023/06/14 06:44:19;;;;;;;5.30;2.67;;;19.60;95.70;;;;;;5030049;28;20107;-75
2023/06/14 06:46:44;;;;;;;8.02;2.60;;;19.70;95.50;;;;;;5029593;28;20033;-77
2023/06/14 06:49:13;;;;;;;4.70;2.60;;;19.80;95.30;;;;;;5046248;28;20072;-77
2023/06/14 06:51:42;;;;;;;5.80;2.42;;;19.90;95.10;;;;;;5029197;28;20045;-77
2023/06/14 06:54:08;;;;;;;5.40;2.55;;;20.00;95.00;;;;;;5029525;28;20033;-76
2023/06/14 06:56:34;;;;;;;5.32;2.35;;;20.10;94.70;;;;;;5029630;28;20092;-77
2023/06/14 06:59:00;;;;;;;6.45;2.65;;;20.20;94.50;;;;;;5046203;28;20045;-77
2023/06/14 07:01:25;;;;;;;5.68;2.38;;;20.20;94.20;;;;;;5045880;28;20034;-78
2023/06/14 07:03:51;;;;;;;4.72;2.75;;;20.40;94.20;;;;;;5029286;28;20086;-76
2023/06/14 07:06:18;;;;;;;3.83;2.10;;;20.50;94.10;;;;;;5046408;28;20041;-77
2023/06/14 07:08:44;;;;;;;5.60;2.30;;;20.50;93.80;;;;;;5026784;28;20049;-77
2023/06/14 07:11:10;;;;;;;5.78;2.50;;;20.60;93.60;;;;;;5031136;28;20029;-75
2023/06/14 07:13:35;;;;;;;5.57;2.40;;;20.70;93.40;;;;;;5032153;28;20030;-77
2023/06/14 07:16:01;;;;;;;5.40;2.40;;;20.90;93.40;;;;;;5031909;28;20029;-77
2023/06/14 07:18:27;;;;;;;3.53;2.20;;;21.00;93.40;;;;;;5048339;28;20389;-74
2023/06/14 07:20:54;;;;;;;5.80;2.53;;;21.10;93.10;;;;;;5032110;28;20128;-76
2023/06/14 07:23:20;;;;;;;3.50;2.40;;;21.20;92.90;;;;;;5031638;28;20493;-77
2023/06/14 07:25:46;;;;;;;5.53;2.40;;;21.20;92.80;;;;;;5033096;28;20063;-78
2023/06/14 07:28:11;;;;;;;6.50;2.42;;;21.30;93.00;;;;;;5034594;28;20029;-77
2023/06/14 07:30:37;;;;;;;3.92;2.38;;;21.40;92.60;;;;;;5050083;28;20043;-77
2023/06/14 07:33:02;;;;;;;6.40;2.65;;;21.50;92.50;;;;;;5032906;28;20156;-76
2023/06/14 07:35:28;;;;;;;6.03;2.47;;;21.60;92.40;;;;;;5049933;28;20041;-75
2023/06/14 07:37:53;;;;;;;8.77;2.70;;;21.60;92.20;;;;;;5033265;28;20054;-77
2023/06/14 07:40:19;;;;;;;4.53;2.10;;;21.70;92.20;;;;;;5033119;28;20045;-76
2023/06/14 07:42:45;;;;;;;4.03;2.33;;;21.80;92.10;;;;;;5032650;28;20037;-76
2023/06/14 07:45:13;;;;;;;4.50;2.00;;;21.90;91.90;;;;;;5033223;28;20087;-76
2023/06/14 07:47:39;;;;;;;5.53;2.53;;;22.00;91.70;;;;;;5032692;28;20520;-75
2023/06/14 07:50:05;;;;;;;6.18;2.22;;;22.00;91.40;;;;;;5049403;28;20072;-75
2023/06/14 07:52:31;;;;;;;5.63;2.13;;;22.10;91.10;;;;;;5032505;28;20033;-76
2023/06/14 07:54:56;;;;;;;3.03;1.95;;;22.20;91.20;;;;;;5049354;28;20474;-76
2023/06/14 07:57:22;;;;;;;4.32;2.10;;;22.30;91.30;;;;;;5049333;28;20429;-77
2023/06/14 07:59:47;;;;;;;9.73;2.40;;;22.40;91.20;;;;;;5032761;28;20493;-75
2023/06/14 08:02:13;;;;;;;3.63;2.33;;;22.50;90.90;;;;;;5048838;28;20136;-78
2023/06/14 08:04:39;;;;;;;3.95;1.83;;;22.50;90.70;;;;;;5049113;28;20144;-76
2023/06/14 08:07:05;;;;;;;4.72;2.08;;;22.60;90.90;;;;;;5024916;28;20033;-76
2023/06/14 08:09:30;;;;;;;4.72;2.00;;;22.70;90.70;;;;;;5020951;28;20041;-77
2023/06/14 08:11:56;;;;;;;3.47;1.95;;;22.70;90.60;;;;;;5048623;28;20511;-77
2023/06/14 08:14:22;;;;;;;5.30;2.33;;;22.80;90.50;;;;;;5032501;28;20029;-73
2023/06/14 08:16:48;;;;;;;3.42;2.10;;;22.90;90.50;;;;;;5048913;28;20069;-77
2023/06/14 08:19:13;;;;;;;5.45;2.10;;;23.00;90.30;;;;;;5048877;28;20068;-76
2023/06/14 08:21:39;;;;;;;5.00;1.80;;;23.10;90.20;;;;;;5031440;28;20479;-76
2023/06/14 08:24:05;;;;;;;4.57;2.00;;;23.20;89.60;;;;;;5041027;28;20091;-77
2023/06/14 08:26:31;;;;;;;8.80;2.20;;;23.30;89.50;;;;;;5032133;28;20467;-77
2023/06/14 08:28:57;;;;;;;4.88;2.08;;;23.30;89.60;;;;;;5032190;28;20033;-77
2023/06/14 08:31:24;;;;;;;9.68;2.90;;;23.40;88.80;;;;;;5032841;28;20038;-77
2023/06/14 08:33:49;;;;;;;4.65;2.00;;;23.40;88.50;;;;;;5032286;28;20050;-77
2023/06/14 08:36:15;;;;;;;4.93;2.10;;;23.50;88.50;;;;;;5032370;28;20047;-76
2023/06/14 08:38:40;;;;;;;4.93;1.85;;;23.60;88.20;;;;;;5048531;28;20037;-76
2023/06/14 08:41:06;;;;;;;5.43;1.90;;;23.60;87.70;;;;;;5048192;28;20064;-76
2023/06/14 08:43:33;;;;;;;3.38;1.92;;;23.60;87.30;;;;;;5031952;28;20033;-75
2023/06/14 08:46:00;;;;;;;5.07;1.92;;;23.60;87.10;;;;;;5048563;28;20411;-78
2023/06/14 08:48:26;;;;;;;4.93;1.90;;;23.70;87.30;;;;;;5048599;28;20114;-76
2023/06/14 08:51:01;;;;;;;4.00;1.80;;;23.80;87.40;;;;;;5031535;28;20045;-76
2023/06/14 08:53:33;;;;;;;5.75;2.00;;;23.80;86.70;;;;;;5048359;28;20061;-77
2023/06/14 08:56:01;;;;;;;3.20;1.83;;;23.80;86.90;;;;;;5048273;28;20037;-79
2023/06/14 08:58:31;;;;;;;5.72;2.30;;;23.80;86.60;;;;;;5031515;28;20033;-77
2023/06/14 09:00:58;;;;;;;2.90;1.85;;;23.80;85.90;;;;;;5031209;28;20041;-78
2023/06/14 09:03:29;;;;;;;8.60;2.00;;;23.80;86.20;;;;;;5048257;28;20057;-78
2023/06/14 09:06:00;;;;;;;3.40;1.80;;;23.80;86.30;;;;;;5031659;28;20037;-78
2023/06/14 09:08:30;;;;;;;4.63;2.17;;;23.90;86.40;;;;;;5031699;28;20493;-77
2023/06/14 09:10:56;;;;;;;5.07;1.90;;;23.80;85.70;;;;;;5031047;28;20048;-78
2023/06/14 09:13:21;;;;;;;2.67;1.90;;;24.00;86.40;;;;;;5032803;28;20030;-76
2023/06/14 09:15:47;;;;;;;2.78;1.80;;;23.80;85.70;;;;;;5031125;28;20451;-76
2023/06/14 09:18:12;;;;;;;4.50;2.10;;;23.90;85.30;;;;;;5031541;28;20424;-77
2023/06/14 09:20:38;;;;;;;3.72;1.85;;;23.90;85.80;;;;;;5048021;28;20049;-77
2023/06/14 09:23:05;;;;;;;3.05;1.95;;;23.90;85.70;;;;;;5030825;28;20140;-77
2023/06/14 09:25:30;;;;;;;3.05;2.10;;;24.00;85.70;;;;;;5031033;28;20044;-75
2023/06/14 09:27:56;;;;;;;5.35;2.10;;;23.90;85.30;;;;;;5047636;28;20033;-75
2023/06/14 09:30:21;;;;;;;7.05;2.20;;;24.00;85.70;;;;;;5030800;28;20033;-76
2023/06/14 09:32:47;;;;;;;3.72;1.95;;;24.00;85.20;;;;;;5030006;28;20033;-76
2023/06/14 09:35:17;;;;;;;8.20;2.30;;;24.10;84.70;;;;;;5047826;28;20041;-76
2023/06/14 09:37:43;;;;;;;6.32;1.80;;;24.10;84.80;;;;;;5030817;28;20040;-77
2023/06/14 09:40:09;;;;;;;4.00;1.80;;;24.00;84.50;;;;;;5047252;28;20045;-77
2023/06/14 09:42:36;;;;;;;4.70;2.00;;;24.10;85.00;;;;;;5030448;28;20087;-76
2023/06/14 09:45:03;;;;;;;3.85;2.20;;;24.10;85.30;;;;;;5047241;28;20144;-76
2023/06/14 09:47:28;;;;;;;3.55;1.88;;;24.10;84.00;;;;;;5047423;28;20041;-76
2023/06/14 09:49:55;;;;;;;5.18;2.00;;;24.10;83.90;;;;;;5047368;28;20509;-75
2023/06/14 09:52:21;;;;;;;4.72;2.25;;;24.10;84.00;;;;;;5030244;28;20026;-77
2023/06/14 09:54:49;;;;;;;3.50;1.92;;;24.10;84.20;;;;;;5047114;28;20071;-77
2023/06/14 09:57:22;;;;;;;3.28;2.10;;;24.20;85.00;;;;;;5030561;28;20033;-75
2023/06/14 09:59:52;;;;;;;4.15;2.15;;;24.30;84.30;;;;;;5046961;28;20160;-77
2023/06/14 10:02:29;;;;;;;3.13;2.00;;;24.30;84.20;;;;;;5030100;28;20040;-77
2023/06/14 10:05:06;;;;;;;5.30;2.10;;;24.40;85.00;;;;;;5046720;28;20048;-75
2023/06/14 10:07:38;;;;;;;4.13;2.10;;;24.50;84.90;;;;;;5047158;28;20519;-76
2023/06/14 10:10:04;;;;;;;5.10;1.80;;;24.50;84.70;;;;;;5030022;28;20041;-77
2023/06/14 10:12:30;;;;;;;5.72;2.00;;;24.60;84.20;;;;;;5030405;28;20056;-76
2023/06/14 10:14:57;;;;;;;5.05;1.90;;;24.70;83.30;;;;;;5046956;28;20089;-76
2023/06/14 10:17:55;;;;;;;5.95;1.90;;;24.70;83.30;;;;;;5030275;28;20034;-76
2023/06/14 10:20:38;;;;;;;5.18;2.03;;;24.70;83.20;;;;;;5030315;28;20042;-76
2023/06/14 10:23:13;;;;;;;3.05;1.90;;;24.90;82.90;;;;;;5046722;28;20126;-76
2023/06/14 10:25:38;;;;;;;2.83;1.60;;;24.90;82.50;;;;;;5029435;28;20081;-76
2023/06/14 10:28:24;;;;;;;3.67;1.67;;;24.90;82.10;;;;;;5046735;28;20079;-76
2023/06/14 10:31:07;;;;;;;6.13;2.00;;;25.00;83.00;;;;;;5030060;28;20043;-75
2023/06/14 10:33:34;;;;;;;4.10;2.08;;;25.00;82.30;;;;;;5030559;28;20041;-76
2023/06/14 10:36:22;;;;;;;3.33;1.55;;;25.00;81.80;;;;;;5047109;28;20112;-78
2023/06/14 10:39:17;;;;;;;3.95;1.90;;;25.00;81.30;;;;;;5030394;28;20396;-76
2023/06/14 10:41:51;;;;;;;3.88;1.80;;;25.00;81.20;;;;;;5030074;28;20397;-76
2023/06/14 10:44:17;;;;;;;5.22;1.90;;;25.10;81.40;;;;;;5046740;28;20452;-76
2023/06/14 10:46:51;;;;;;;3.78;1.83;;;25.20;80.70;;;;;;5030417;28;20099;-76
2023/06/14 10:49:21;;;;;;;4.40;1.80;;;25.20;80.00;;;;;;5028837;28;20103;-76
2023/06/14 10:51:51;;;;;;;3.50;2.03;;;25.30;80.80;;;;;;5028682;28;20060;-76
2023/06/14 10:54:17;;;;;;;3.22;1.60;;;25.40;82.00;;;;;;5030060;28;20121;-76
2023/06/14 10:56:53;;;;;;;3.28;1.98;;;25.50;82.40;;;;;;5029880;28;20038;-77
2023/06/14 10:59:20;;;;;;;4.47;1.67;;;25.60;80.60;;;;;;5029988;28;20455;-75
2023/06/14 11:02:24;;;;;;;3.95;1.88;;;25.70;80.00;;;;;;5029501;28;20041;-75
2023/06/14 11:04:55;;;;;;;;;;;25.90;80.60;;;;;;5030358;28;20394;-76
2023/06/14 11:07:43;;;;;;;8.50;2.17;;;25.90;80.90;;;;;;5028930;28;19917;-75
2023/06/14 11:10:37;;;;;;;2.72;1.77;;;26.00;81.40;;;;;;5045832;28;20048;-77
2023/06/14 11:13:03;;;;;;;3.92;1.77;;;26.10;80.50;;;;;;5029952;28;20046;-75
2023/06/14 11:15:34;;;;;;;2.83;1.75;;;26.10;80.20;;;;;;5046499;28;20045;-75
2023/06/14 11:18:07;;;;;;;3.63;1.67;;;26.30;80.40;;;;;;5046471;28;20048;-78
2023/06/14 11:20:35;;;;;;;2.72;1.80;;;26.20;80.00;;;;;;5046462;28;20421;-74
2023/06/14 11:23:02;;;;;;;5.30;1.88;;;26.40;79.90;;;;;;5029363;28;20046;-75
2023/06/14 11:25:30;;;;;;;4.28;1.65;;;26.50;79.40;;;;;;5046343;28;20049;-76
2023/06/14 11:27:57;;;;;;;3.53;1.73;;;26.60;78.80;;;;;;5029709;28;20068;-75
2023/06/14 11:30:23;;;;;;;6.03;1.70;;;26.50;78.30;;;;;;5029362;28;20065;-75
2023/06/14 11:32:50;;;;;;;3.78;1.73;;;26.70;78.20;;;;;;5046144;28;20090;-75
2023/06/14 11:35:17;;;;;;;2.78;1.70;;;26.80;77.70;;;;;;5028225;28;20548;-77
2023/06/14 11:37:44;;;;;;;3.13;1.60;;;26.90;77.60;;;;;;5028943;28;20041;-75
2023/06/14 11:40:11;;;;;;;3.38;1.48;;;27.10;77.80;;;;;;5028077;28;20049;-75
2023/06/14 11:42:38;;;;;;;5.15;1.80;;;27.30;78.00;;;;;;5044870;28;20497;-74
2023/06/14 11:45:07;;;;;;;2.70;1.27;;;27.40;76.00;;;;;;5045611;28;20136;-75
2023/06/14 11:47:36;;;;;;;3.83;1.40;;;27.50;75.90;;;;;;5029235;28;20124;-74
2023/06/14 11:50:02;;;;;;;3.38;1.20;;;27.50;76.00;;;;;;5029230;28;20559;-76
2023/06/14 11:52:28;;;;;;;3.28;1.27;;;27.60;75.70;;;;;;5030463;28;20072;-75
2023/06/14 11:54:54;;;;;;;3.28;1.25;;;27.80;75.20;;;;;;5029292;28;20516;-75
2023/06/14 11:57:20;;;;;;;3.75;1.35;;;27.90;75.00;;;;;;5032091;28;20068;-75
2023/06/14 11:59:46;;;;;;;2.42;1.35;;;28.10;74.30;;;;;;5032914;28;20060;-74
2023/06/14 12:02:19;;;;;;;3.05;1.20;;;28.10;74.20;;;;;;5032845;28;20037;-76
2023/06/14 12:04:48;;;;;;;3.97;1.38;;;28.30;73.90;;;;;;5049350;28;20033;-77
2023/06/14 12:07:19;;;;;;;4.28;1.35;;;28.40;74.10;;;;;;5033081;28;20087;-75
2023/06/14 12:09:54;;;;;;;7.63;1.42;;;28.40;73.40;;;;;;5032489;28;20040;-74
2023/06/14 12:12:25;;;;;;;2.40;1.30;;;28.40;73.40;;;;;;5030929;28;20144;-75
2023/06/14 12:14:51;;;;;;;2.70;1.40;;;28.50;74.40;;;;;;5031328;28;20501;-77
2023/06/14 12:17:18;;;;;;;3.50;1.30;;;28.60;73.50;;;;;;5032646;28;20553;-75
2023/06/14 12:19:45;;;;;;;10.88;1.88;;;28.40;73.60;;;;;;5027055;28;20065;-75
2023/06/14 12:22:12;;;;;;;4.13;1.33;;;27.70;73.10;;;;;;5031910;28;20117;-75
2023/06/14 12:24:37;;;;;;;3.20;1.33;;;27.70;73.40;;;;;;5032338;28;20087;-75
2023/06/14 12:27:04;;;;;;;4.32;1.50;;;28.00;75.10;;;;;;5032248;28;20029;-74
2023/06/14 12:29:30;;;;;;;2.63;1.20;;;28.20;73.80;;;;;;5033468;28;20048;-74
2023/06/14 12:31:56;;;;;;;1.45;1.00;;;28.40;74.10;;;;;;5031345;28;20061;-74
2023/06/14 12:34:27;;;;;;;2.45;1.27;;;28.60;73.50;;;;;;5031970;28;20115;-74
2023/06/14 12:36:53;;;;;;;4.97;1.60;;;28.90;73.60;;;;;;5031996;28;20048;-74
2023/06/14 12:39:19;;;;;;;3.63;1.55;;;29.10;73.00;;;;;;5031767;28;20037;-74
2023/06/14 12:41:45;;;;;;;3.40;1.20;;;28.90;72.40;;;;;;5031527;28;20501;-76
2023/06/14 12:44:11;;;;;;;3.90;1.30;;;29.00;72.10;;;;;;5032101;28;20038;-75
2023/06/14 12:46:39;;;;;;;3.53;1.42;;;29.10;72.40;;;;;;5028990;28;21063;-74
2023/06/14 12:49:05;;;;;;;5.18;1.42;;;29.30;72.30;;;;;;5018959;28;20080;-76